createdAt,value
2022-09-28T00:01:41.077Z,9.30
2022-09-28T00:04:12.375Z,9.30
2022-09-28T00:06:40.572Z,9.30
2022-09-28T00:09:08.555Z,9.30
2022-09-28T00:14:07.496Z,9.40
2022-09-28T00:16:40.032Z,9.30
2022-09-28T00:19:08.568Z,9.30
2022-09-28T00:21:38.984Z,9.40
2022-09-28T00:24:25.231Z,9.40
2022-09-28T00:26:58.881Z,9.40
2022-09-28T00:29:32.071Z,9.40
2022-09-28T00:32:07.629Z,9.40
2022-09-28T00:34:40.723Z,9.40
2022-09-28T00:37:09.755Z,9.40
2022-09-28T00:39:41.301Z,9.40
2022-09-28T00:42:19.482Z,9.40
2022-09-28T00:44:52.309Z,9.40
2022-09-28T00:47:44.381Z,9.40
2022-09-28T00:50:23.165Z,9.50
2022-09-28T00:52:55.526Z,9.40
2022-09-28T00:55:34.896Z,9.40
2022-09-28T00:58:06.204Z,9.40
2022-09-28T01:00:34.094Z,9.40
2022-09-28T01:03:02.836Z,9.40
2022-09-28T01:05:31.138Z,9.40
2022-09-28T01:08:03.301Z,9.40
2022-09-28T01:10:32.401Z,9.40
2022-09-28T01:13:00.438Z,9.40
2022-09-28T01:15:30.504Z,9.40
2022-09-28T01:18:14.063Z,9.40
2022-09-28T01:20:45.742Z,9.40
2022-09-28T01:23:53.372Z,9.40
2022-09-28T01:26:39.363Z,9.40
2022-09-28T01:29:34.970Z,9.40
2022-09-28T01:32:49.888Z,9.40
2022-09-28T01:35:37.482Z,9.40
2022-09-28T01:38:19.350Z,9.30
2022-09-28T01:40:48.948Z,9.30
2022-09-28T01:43:28.472Z,9.40
2022-09-28T01:46:16.723Z,9.40
2022-09-28T01:49:09.803Z,9.40
2022-09-28T01:51:53.270Z,9.40
2022-09-28T01:54:32.674Z,9.40
2022-09-28T01:57:27.139Z,9.40
2022-09-28T02:00:23.965Z,9.50
2022-09-28T02:03:10.037Z,9.50
2022-09-28T02:06:09.544Z,9.50
2022-09-28T02:08:46.023Z,9.50
2022-09-28T02:11:17.347Z,9.50
2022-09-28T02:13:59.937Z,9.50
2022-09-28T02:16:43.795Z,9.50
2022-09-28T02:19:32.672Z,9.50
2022-09-28T02:22:28.930Z,9.50
2022-09-28T02:25:05.333Z,9.50
2022-09-28T02:27:56.367Z,9.50
2022-09-28T02:30:24.586Z,9.50
2022-09-28T02:32:59.458Z,9.50
2022-09-28T02:35:27.454Z,9.50
2022-09-28T02:37:56.666Z,9.50
2022-09-28T02:40:33.955Z,9.50
2022-09-28T02:43:24.804Z,9.50
2022-09-28T02:46:20.270Z,9.50
2022-09-28T02:49:29.070Z,9.50
2022-09-28T02:52:13.755Z,9.50
2022-09-28T02:55:01.688Z,9.50
2022-09-28T02:58:25.274Z,9.60
2022-09-28T03:01:51.304Z,9.60
2022-09-28T03:04:47.287Z,9.60
2022-09-28T03:07:38.638Z,9.60
2022-09-28T03:10:35.577Z,9.60
2022-09-28T03:13:04.914Z,9.60
2022-09-28T03:15:36.714Z,9.70
2022-09-28T03:18:05.054Z,9.70
2022-09-28T03:20:33.660Z,9.70
2022-09-28T03:25:50.233Z,9.70
2022-09-28T03:28:18.116Z,9.70
2022-09-28T03:30:45.925Z,10.20
2022-09-28T03:33:14.092Z,9.70
2022-09-28T03:35:42.193Z,9.70
2022-09-28T03:38:10.803Z,9.70
2022-09-28T03:40:39.674Z,9.70
2022-09-28T03:43:07.559Z,9.60
2022-09-28T03:45:35.706Z,9.70
2022-09-28T03:48:03.814Z,9.70
2022-09-28T03:50:31.980Z,9.70
2022-09-28T03:53:04.014Z,9.70
2022-09-28T03:55:31.809Z,9.70
2022-09-28T03:57:59.698Z,9.80
2022-09-28T04:00:27.619Z,9.70
2022-09-28T04:02:56.527Z,9.70
2022-09-28T04:05:24.420Z,9.70
2022-09-28T04:07:56.369Z,9.70
2022-09-28T04:10:26.047Z,9.70
2022-09-28T04:12:58.310Z,9.70
2022-09-28T04:15:26.310Z,9.60
2022-09-28T04:17:54.172Z,9.60
2022-09-28T04:20:45.451Z,9.60
2022-09-28T04:23:15.774Z,9.60
2022-09-28T04:25:48.710Z,9.50
2022-09-28T04:28:34.787Z,9.50
2022-09-28T04:31:02.695Z,9.50
2022-09-28T04:33:32.004Z,9.50
2022-09-28T04:36:00.693Z,9.50
2022-09-28T04:38:48.810Z,9.50
2022-09-28T04:41:17.805Z,9.50
2022-09-28T04:43:50.024Z,9.50
2022-09-28T04:46:18.396Z,9.40
2022-09-28T04:49:14.975Z,9.40
2022-09-28T04:51:53.014Z,9.40
2022-09-28T04:54:20.932Z,9.50
2022-09-28T04:56:49.241Z,9.50
2022-09-28T05:04:21.264Z,9.50
2022-09-28T05:07:17.461Z,9.50
2022-09-28T05:09:45.383Z,9.50
2022-09-28T05:12:13.275Z,9.50
2022-09-28T05:17:10.920Z,9.60
2022-09-28T05:19:59.152Z,9.60
2022-09-28T05:22:27.132Z,9.60
2022-09-28T05:24:58.249Z,9.60
2022-09-28T05:27:26.314Z,9.60
2022-09-28T05:30:11.227Z,9.50
2022-09-28T05:33:18.009Z,9.60
2022-09-28T05:36:03.201Z,9.60
2022-09-28T05:41:11.918Z,9.60
2022-09-28T05:56:06.843Z,9.50
2022-09-28T06:01:06.672Z,9.50
2022-09-28T06:08:33.166Z,9.60
2022-09-28T06:11:36.415Z,9.60
2022-09-28T06:14:16.120Z,9.60
2022-09-28T06:16:45.071Z,9.60
2022-09-28T06:19:13.968Z,9.70
2022-09-28T06:21:59.169Z,9.70
2022-09-28T06:24:27.633Z,9.70
2022-09-28T06:26:55.436Z,9.70
2022-09-28T06:29:23.622Z,9.70
2022-09-28T06:31:51.729Z,9.70
2022-09-28T06:34:19.717Z,9.60
2022-09-28T06:36:48.757Z,9.60
2022-09-28T06:39:17.918Z,9.60
2022-09-28T06:41:45.931Z,9.80
2022-09-28T06:44:18.838Z,9.80
2022-09-28T06:47:05.760Z,9.90
2022-09-28T06:49:57.145Z,10.10
2022-09-28T06:52:57.326Z,10.20
2022-09-28T06:55:43.897Z,10.30
2022-09-28T06:58:15.581Z,10.40
2022-09-28T07:00:44.280Z,10.50
2022-09-28T07:03:17.168Z,10.50
2022-09-28T07:09:09.612Z,10.70
2022-09-28T07:12:05.060Z,10.50
2022-09-28T07:14:47.363Z,10.50
2022-09-28T07:17:17.443Z,10.40
2022-09-28T07:19:45.346Z,10.50
2022-09-28T07:22:18.440Z,10.50
2022-09-28T07:24:48.950Z,10.50
2022-09-28T07:27:42.762Z,10.50
2022-09-28T07:30:35.298Z,10.50
2022-09-28T07:33:10.795Z,10.50
2022-09-28T07:35:55.442Z,10.50
2022-09-28T07:38:29.488Z,10.50
2022-09-28T07:41:14.403Z,10.50
2022-09-28T07:43:49.898Z,10.60
2022-09-28T07:46:18.088Z,10.70
2022-09-28T07:48:56.206Z,10.70
2022-09-28T07:51:59.107Z,10.70
2022-09-28T07:54:31.402Z,11.50
2022-09-28T07:57:25.492Z,10.80
2022-09-28T08:00:14.607Z,10.80
2022-09-28T08:02:44.214Z,10.90
2022-09-28T08:05:16.038Z,10.90
2022-09-28T08:07:45.213Z,11.00
2022-09-28T08:10:14.037Z,11.00
2022-09-28T08:13:04.778Z,11.10
2022-09-28T08:15:55.942Z,11.10
2022-09-28T08:18:32.671Z,11.10
2022-09-28T08:21:23.000Z,11.10
2022-09-28T08:23:51.788Z,11.20
2022-09-28T08:26:19.982Z,11.20
2022-09-28T08:28:48.360Z,11.30
2022-09-28T08:31:44.497Z,11.30
2022-09-28T08:34:32.848Z,11.40
2022-09-28T08:37:17.153Z,11.30
2022-09-28T08:40:24.834Z,11.50
2022-09-28T08:43:48.272Z,11.50
2022-09-28T08:46:59.759Z,11.70
2022-09-28T08:49:50.488Z,11.70
2022-09-28T08:52:32.444Z,11.90
2022-09-28T08:55:33.445Z,11.80
2022-09-28T08:58:24.045Z,11.80
2022-09-28T09:00:54.342Z,11.80
2022-09-28T09:03:42.473Z,12.10
2022-09-28T09:06:59.501Z,12.30
2022-09-28T09:10:00.352Z,12.20
2022-09-28T09:12:43.400Z,12.20
2022-09-28T09:15:34.243Z,12.20
2022-09-28T09:18:25.937Z,12.20
2022-09-28T09:21:42.209Z,12.30
2022-09-28T09:24:38.434Z,12.40
2022-09-28T09:27:27.993Z,12.40
2022-09-28T09:30:09.423Z,12.50
2022-09-28T09:33:38.910Z,12.60
2022-09-28T09:36:38.561Z,12.70
2022-09-28T09:39:54.220Z,12.50
2022-09-28T09:43:18.544Z,12.40
2022-09-28T09:46:19.314Z,12.30
2022-09-28T09:49:13.682Z,12.30
2022-09-28T09:51:52.972Z,12.70
2022-09-28T09:54:35.491Z,13.00
2022-09-28T09:57:15.315Z,13.20
2022-09-28T10:00:02.266Z,13.40
2022-09-28T10:02:46.097Z,13.50
2022-09-28T10:05:35.273Z,13.50
2022-09-28T10:08:13.820Z,13.40
2022-09-28T10:11:09.450Z,12.60
2022-09-28T10:13:47.359Z,13.40
2022-09-28T10:16:36.393Z,13.30
2022-09-28T10:19:13.586Z,13.80
2022-09-28T10:22:05.199Z,13.80
2022-09-28T10:24:48.985Z,14.00
2022-09-28T10:27:29.024Z,14.50
2022-09-28T10:30:23.419Z,14.80
2022-09-28T10:32:55.257Z,14.80
2022-09-28T10:38:08.026Z,15.00
2022-09-28T10:40:51.259Z,15.30
2022-09-28T10:43:29.909Z,15.30
2022-09-28T10:48:56.441Z,15.50
2022-09-28T10:51:56.305Z,15.70
2022-09-28T10:59:41.476Z,16.00
2022-09-28T11:02:36.817Z,16.10
2022-09-28T11:05:23.017Z,16.10
2022-09-28T11:07:55.964Z,16.20
2022-09-28T11:10:32.690Z,16.00
2022-09-28T11:13:10.444Z,16.20
2022-09-28T11:15:44.255Z,16.30
2022-09-28T11:18:32.470Z,16.40
2022-09-28T11:21:22.875Z,16.40
2022-09-28T11:24:07.539Z,16.50
2022-09-28T11:26:46.923Z,16.60
2022-09-28T11:29:46.998Z,16.90
2022-09-28T11:35:35.266Z,16.70
2022-09-28T11:38:27.195Z,16.90
2022-09-28T11:41:53.894Z,17.40
2022-09-28T11:44:46.570Z,17.20
2022-09-28T11:47:47.773Z,16.70
2022-09-28T11:51:04.499Z,16.70
2022-09-28T11:53:46.020Z,17.20
2022-09-28T11:56:31.925Z,17.50
2022-09-28T11:59:16.131Z,17.60
2022-09-28T12:02:00.595Z,17.60
2022-09-28T12:04:55.944Z,17.30
2022-09-28T12:07:32.869Z,17.70
2022-09-28T12:10:36.236Z,17.60
2022-09-28T12:13:11.957Z,17.90
2022-09-28T12:16:37.560Z,18.40
2022-09-28T12:19:11.003Z,18.80
2022-09-28T12:21:59.876Z,18.20
2022-09-28T12:24:39.492Z,17.90
2022-09-28T12:27:10.323Z,17.90
2022-09-28T12:29:53.628Z,17.50
2022-09-28T12:32:44.965Z,17.90
2022-09-28T12:35:18.577Z,17.80
2022-09-28T12:38:12.871Z,17.40
2022-09-28T12:41:02.352Z,16.90
2022-09-28T12:43:54.705Z,16.60
2022-09-28T12:46:56.079Z,16.30
2022-09-28T12:50:20.459Z,15.80
2022-09-28T12:52:31.512Z,15.70
2022-09-28T12:57:48.702Z,16.60
2022-09-28T13:00:22.981Z,15.70
2022-09-28T13:03:20.035Z,15.80
2022-09-28T13:08:41.755Z,16.40
2022-09-28T13:11:36.647Z,16.50
2022-09-28T13:14:29.118Z,16.10
2022-09-28T13:17:40.092Z,16.20
2022-09-28T13:23:16.592Z,16.90
2022-09-28T13:25:53.970Z,17.00
2022-09-28T13:28:27.317Z,17.00
2022-09-28T13:33:36.978Z,17.00
2022-09-28T13:36:30.863Z,16.60
2022-09-28T13:39:00.813Z,16.00
2022-09-28T13:41:35.616Z,16.00
2022-09-28T13:44:03.581Z,16.20
2022-09-28T13:46:56.373Z,16.90
2022-09-28T13:52:55.320Z,16.60
2022-09-28T13:55:35.095Z,16.80
2022-09-28T13:58:16.862Z,17.20
2022-09-28T14:03:43.881Z,17.50
2022-09-28T14:06:28.891Z,17.60
2022-09-28T14:09:24.385Z,17.60
2022-09-28T14:11:59.353Z,17.40
2022-09-28T14:14:52.823Z,17.00
2022-09-28T14:17:23.593Z,17.00
2022-09-28T14:20:00.189Z,17.00
2022-09-28T14:23:15.108Z,16.50
2022-09-28T14:26:25.241Z,16.60
2022-09-28T14:29:28.444Z,16.40
2022-09-28T14:32:11.282Z,16.40
2022-09-28T14:34:47.435Z,16.00
2022-09-28T14:38:00.984Z,17.50
2022-09-28T14:41:11.039Z,15.80
2022-09-28T14:43:44.617Z,15.80
2022-09-28T14:48:48.815Z,15.60
2022-09-28T14:51:30.264Z,15.80
2022-09-28T14:54:12.681Z,15.80
2022-09-28T14:56:52.157Z,16.00
2022-09-28T15:02:15.434Z,15.70
2022-09-28T15:05:10.058Z,15.60
2022-09-28T15:07:50.649Z,15.50
2022-09-28T15:10:48.811Z,15.70
2022-09-28T15:13:26.211Z,15.50
2022-09-28T15:16:08.961Z,15.50
2022-09-28T15:19:05.281Z,15.60
2022-09-28T15:21:42.979Z,15.40
2022-09-28T15:24:36.804Z,15.30
2022-09-28T15:27:20.026Z,15.20
2022-09-28T15:30:17.618Z,15.40
2022-09-28T15:32:55.211Z,15.50
2022-09-28T15:35:35.184Z,15.40
2022-09-28T15:43:33.141Z,15.50
2022-09-28T15:46:22.950Z,15.20
2022-09-28T15:48:59.628Z,15.30
2022-09-28T15:51:31.614Z,15.40
2022-09-28T15:54:19.416Z,15.30
2022-09-28T15:57:02.889Z,15.20
2022-09-28T15:59:38.292Z,15.10
2022-09-28T16:02:17.502Z,15.20
2022-09-28T16:07:18.799Z,15.30
2022-09-28T16:10:14.039Z,15.20
2022-09-28T16:12:53.657Z,15.20
2022-09-28T16:15:38.688Z,15.40
2022-09-28T16:18:25.202Z,15.30
2022-09-28T16:21:01.899Z,15.20
2022-09-28T16:29:25.799Z,15.00
2022-09-28T16:34:26.479Z,14.90
2022-09-28T16:42:01.788Z,14.50
2022-09-28T16:49:31.751Z,14.40
2022-09-28T16:54:48.254Z,14.40
2022-09-28T17:05:15.807Z,13.80
2022-09-28T17:08:00.366Z,14.00
2022-09-28T17:11:02.639Z,13.80
2022-09-28T17:13:34.028Z,13.50
2022-09-28T17:21:15.764Z,13.30
2022-09-28T17:23:48.817Z,13.30
2022-09-28T17:26:27.437Z,15.00
2022-09-28T17:31:34.360Z,13.30
2022-09-28T17:36:44.982Z,13.20
2022-09-28T17:39:16.713Z,13.10
2022-09-28T17:46:47.612Z,13.00
2022-09-28T17:59:18.518Z,12.70
2022-09-28T18:12:04.195Z,12.60
2022-09-28T18:54:30.069Z,12.00
2022-09-28T18:59:26.797Z,11.70
2022-09-28T19:09:22.965Z,11.20
2022-09-28T19:19:19.284Z,11.10
2022-09-28T19:24:18.487Z,11.00
2022-09-28T19:44:31.334Z,10.60
2022-09-28T19:49:29.277Z,10.70
2022-09-28T19:54:56.835Z,10.60
2022-09-28T19:57:29.244Z,10.50
2022-09-28T20:02:34.528Z,10.50
2022-09-28T20:19:53.862Z,10.40
2022-09-28T20:59:52.147Z,9.40
2022-09-28T21:32:01.331Z,9.00
2022-09-28T22:09:08.064Z,8.50
2022-09-28T22:21:34.702Z,8.10
2022-09-28T22:24:06.733Z,8.10
2022-09-28T22:26:37.037Z,8.00
2022-09-28T22:29:08.696Z,8.00
2022-09-28T22:31:40.362Z,7.90
2022-09-28T22:34:09.078Z,7.80
2022-09-28T22:44:02.149Z,7.80
2022-09-28T22:46:32.595Z,7.70
2022-09-28T22:51:30.340Z,7.60
2022-09-28T23:01:29.743Z,7.50
2022-09-28T23:03:59.430Z,7.40
2022-09-28T23:06:30.413Z,7.40
2022-09-28T23:13:58.553Z,7.30
2022-09-28T23:21:27.017Z,7.30
2022-09-28T23:24:03.220Z,7.30
2022-09-28T23:26:33.260Z,7.30
2022-09-28T23:31:32.318Z,7.30
2022-09-28T23:34:03.227Z,7.20
